Time;durP1;ratioP1;P1;durP2;ratioP2;P2;SDS_P1;SDS_P2;PMS_P1;PMS_P2;Temp;Humidity;BMP_temperature;BMP_pressure;BME280_temperature;BME280_humidity;BME280_pressure;Samples;Min_cycle;Max_cycle;Signal;HPM_P1;HPM_P2
2021/12/11 00:00:53;;;;;;;8.45;8.35;;;2.10;99.90;;;;;;4191059;28;20028;-46
2021/12/11 00:03:03;;;;;;;11.35;11.10;;;2.20;99.90;;;;;;4178848;28;20037;-46
2021/12/11 00:05:06;;;;;;;12.65;12.55;;;2.10;99.90;;;;;;4190925;28;20048;-46
2021/12/11 00:07:10;;;;;;;;;;;2.00;99.90;;;;;;4193113;28;20040;-45
2021/12/11 00:09:18;;;;;;;9.68;9.57;;;2.00;99.90;;;;;;4193071;28;19924;-46
2021/12/11 00:11:22;;;;;;;14.40;14.10;;;2.10;99.90;;;;;;4192721;28;20055;-45
2021/12/11 00:13:28;;;;;;;14.75;14.55;;;2.10;99.90;;;;;;4156266;28;20139;-45
2021/12/11 00:15:34;;;;;;;12.55;12.45;;;2.10;99.90;;;;;;4185870;28;20037;-46
2021/12/11 00:17:36;;;;;;;14.05;13.95;;;2.20;99.90;;;;;;4189090;28;20043;-45
2021/12/11 00:19:40;;;;;;;12.90;12.80;;;2.20;99.90;;;;;;4191563;28;20049;-46
2021/12/11 00:21:43;;;;;;;11.63;11.52;;;2.40;99.90;;;;;;4190656;28;20086;-45
2021/12/11 00:24:02;;;;;;;10.43;10.32;;;2.60;99.90;;;;;;4192933;28;20045;-45
2021/12/11 00:26:07;;;;;;;8.95;8.85;;;2.50;99.90;;;;;;4192761;28;20044;-46
2021/12/11 00:28:10;;;;;;;8.00;7.93;;;2.60;99.90;;;;;;4181215;28;20032;-46
2021/12/11 00:30:22;;;;;;;10.52;10.43;;;2.50;99.90;;;;;;4191119;28;20044;-47
2021/12/11 00:32:34;;;;;;;9.65;9.45;;;2.40;99.90;;;;;;4182923;28;20036;-46
2021/12/11 00:34:39;;;;;;;16.10;15.90;;;2.40;99.90;;;;;;4190957;28;20052;-47
2021/12/11 00:36:51;;;;;;;18.70;18.23;;;2.30;99.90;;;;;;4191979;28;20055;-46
2021/12/11 00:38:53;;;;;;;17.48;17.17;;;2.30;99.90;;;;;;4191865;28;20500;-47
2021/12/11 00:40:55;;;;;;;14.38;14.27;;;2.30;99.90;;;;;;4190691;28;20491;-46
2021/12/11 00:43:02;;;;;;;;;;;2.40;99.90;;;;;;4176195;28;20549;-46
2021/12/11 00:45:12;;;;;;;10.93;10.82;;;2.40;99.90;;;;;;4187839;28;19924;-46
2021/12/11 00:47:23;;;;;;;11.77;11.57;;;2.40;99.90;;;;;;4192693;28;20090;-45
2021/12/11 00:49:28;;;;;;;11.40;11.20;;;2.30;99.90;;;;;;4192418;28;20576;-45
2021/12/11 00:51:30;;;;;;;10.90;10.80;;;2.30;99.90;;;;;;4191793;28;20562;-47
2021/12/11 00:53:44;;;;;;;6.63;6.63;;;2.30;99.90;;;;;;4190492;28;20037;-45
2021/12/11 00:55:52;;;;;;;5.10;5.00;;;2.30;99.90;;;;;;4180215;28;20056;-45
2021/12/11 00:58:09;;;;;;;4.55;4.55;;;2.30;99.90;;;;;;4191135;28;20044;-47
2021/12/11 01:00:17;;;;;;;4.30;4.30;;;2.30;99.90;;;;;;4184393;28;20086;-47
2021/12/11 01:02:20;;;;;;;3.97;3.97;;;2.30;99.90;;;;;;4188406;28;20542;-46
2021/12/11 01:04:27;;;;;;;3.95;3.95;;;2.30;99.90;;;;;;4190732;28;20033;-46
2021/12/11 01:06:37;;;;;;;4.65;4.65;;;2.40;99.90;;;;;;4192388;28;20040;-46
2021/12/11 01:08:44;;;;;;;4.45;4.45;;;2.40;99.90;;;;;;4187558;28;20045;-46
2021/12/11 01:10:49;;;;;;;7.93;7.75;;;2.40;99.90;;;;;;4192425;28;20037;-46
2021/12/11 01:13:00;;;;;;;5.43;5.43;;;2.40;99.90;;;;;;4192018;28;20033;-45
2021/12/11 01:15:13;;;;;;;7.45;7.35;;;2.40;99.90;;;;;;4184069;28;20094;-46
2021/12/11 01:18:00;;;;;;;7.72;7.63;;;2.40;99.90;;;;;;4185917;28;20078;-46
2021/12/11 01:20:24;;;;;;;7.47;7.47;;;2.40;99.90;;;;;;4161709;28;20041;-46
2021/12/11 01:22:34;;;;;;;10.13;10.02;;;2.40;99.90;;;;;;4193850;28;20067;-46
2021/12/11 01:24:45;;;;;;;10.00;9.90;;;2.40;99.90;;;;;;4194928;28;20413;-45
2021/12/11 01:26:50;;;;;;;10.23;10.13;;;2.50;99.90;;;;;;4194187;28;20040;-45
2021/12/11 01:28:53;;;;;;;12.82;12.73;;;2.60;99.90;;;;;;4193925;28;20032;-45
2021/12/11 01:30:56;;;;;;;9.80;9.60;;;2.70;99.90;;;;;;4193157;28;20028;-49
2021/12/11 01:32:59;;;;;;;9.45;9.35;;;2.70;99.90;;;;;;4175179;28;20502;-46
2021/12/11 01:35:02;;;;;;;;;;;2.70;99.90;;;;;;4196270;28;20033;-47
2021/12/11 01:37:06;;;;;;;12.55;12.45;;;2.70;99.90;;;;;;4194263;28;19924;-46
2021/12/11 01:39:15;;;;;;;14.13;14.02;;;2.70;99.90;;;;;;4193818;28;20063;-45
2021/12/11 01:41:19;;;;;;;15.38;15.13;;;2.80;99.90;;;;;;4175220;28;20064;-45
2021/12/11 01:43:25;;;;;;;15.98;15.88;;;2.80;99.90;;;;;;4194262;28;20094;-46
2021/12/11 01:45:27;;;;;;;16.13;16.02;;;2.90;99.90;;;;;;4194302;28;20032;-45
2021/12/11 01:47:33;;;;;;;17.15;16.92;;;3.00;99.90;;;;;;4187606;28;20044;-48
2021/12/11 01:49:37;;;;;;;16.75;16.65;;;3.10;99.90;;;;;;4194627;28;20079;-47
2021/12/11 01:51:39;;;;;;;15.88;15.77;;;3.20;99.90;;;;;;4193474;28;20048;-47
2021/12/11 01:53:49;;;;;;;16.08;15.88;;;3.30;99.90;;;;;;4193891;28;20072;-46
2021/12/11 01:55:55;;;;;;;16.95;16.75;;;3.30;99.90;;;;;;4194859;28;20036;-46
2021/12/11 01:57:58;;;;;;;16.83;16.52;;;3.20;99.90;;;;;;4193487;28;20559;-47
2021/12/11 02:00:09;;;;;;;14.70;14.60;;;3.20;99.90;;;;;;4194915;28;20118;-48
2021/12/11 02:02:21;;;;;;;16.40;16.10;;;3.20;99.90;;;;;;4192012;28;20080;-46
2021/12/11 02:04:26;;;;;;;15.63;15.43;;;3.20;99.90;;;;;;4194312;28;20082;-45
2021/12/11 02:06:31;;;;;;;16.42;16.33;;;3.20;99.90;;;;;;4192240;28;20612;-47
2021/12/11 02:08:38;;;;;;;16.55;16.35;;;3.20;99.90;;;;;;4183514;28;20033;-47
2021/12/11 02:11:09;;;;;;;17.38;17.25;;;3.20;99.90;;;;;;4192846;28;20060;-46
2021/12/11 02:13:20;;;;;;;17.95;17.75;;;3.20;99.90;;;;;;4193513;28;20032;-46
2021/12/11 02:15:32;;;;;;;20.33;20.13;;;3.30;99.90;;;;;;4192826;28;20044;-46
2021/12/11 02:17:52;;;;;;;21.05;20.58;;;3.30;99.90;;;;;;4194116;28;20132;-48
2021/12/11 02:19:57;;;;;;;17.38;17.27;;;3.30;99.90;;;;;;4194309;28;20052;-46
2021/12/11 02:22:02;;;;;;;16.13;15.93;;;3.30;99.90;;;;;;4193513;28;20036;-47
2021/12/11 02:24:09;;;;;;;14.15;13.95;;;3.20;99.90;;;;;;4196017;28;20563;-46
2021/12/11 02:26:16;;;;;;;14.10;14.00;;;3.20;99.90;;;;;;4191735;28;20496;-47
2021/12/11 02:28:32;;;;;;;13.80;13.70;;;3.30;99.90;;;;;;4194189;28;20086;-47
2021/12/11 02:30:47;;;;;;;13.13;13.02;;;3.30;99.90;;;;;;4192562;28;20040;-46
2021/12/11 02:33:13;;;;;;;13.45;13.35;;;3.30;99.90;;;;;;4194510;28;20036;-48
2021/12/11 02:35:34;;;;;;;12.43;12.32;;;3.30;99.90;;;;;;4193638;28;20091;-48
2021/12/11 02:37:41;;;;;;;11.95;11.75;;;3.30;99.90;;;;;;4193641;28;20040;-48
2021/12/11 02:39:58;;;;;;;14.35;14.25;;;3.30;99.90;;;;;;4194369;28;20093;-49
2021/12/11 02:42:16;;;;;;;12.07;11.98;;;3.20;99.90;;;;;;4192824;28;20098;-48
2021/12/11 02:44:46;;;;;;;12.68;12.57;;;3.30;99.90;;;;;;4193223;28;20041;-48
2021/12/11 02:47:09;;;;;;;14.43;14.32;;;3.30;99.90;;;;;;4191609;28;20032;-48
2021/12/11 02:49:24;;;;;;;16.10;16.00;;;3.20;99.90;;;;;;4193784;28;20404;-48
2021/12/11 02:51:30;;;;;;;18.00;17.90;;;3.20;99.90;;;;;;4192146;28;20048;-49
2021/12/11 02:53:38;;;;;;;18.75;18.55;;;3.20;99.90;;;;;;4193837;28;20065;-50
2021/12/11 02:55:56;;;;;;;16.30;16.20;;;3.30;99.90;;;;;;4193734;28;20045;-48
2021/12/11 02:58:10;;;;;;;16.33;16.23;;;3.30;99.90;;;;;;4194019;28;20036;-48
2021/12/11 03:00:38;;;;;;;16.25;16.15;;;3.30;99.90;;;;;;4193021;28;20049;-48
2021/12/11 03:02:47;;;;;;;16.27;16.17;;;3.40;99.90;;;;;;4193293;28;20593;-48
2021/12/11 03:04:56;;;;;;;14.93;14.82;;;3.30;99.90;;;;;;4194767;28;20040;-50
2021/12/11 03:07:02;;;;;;;15.70;15.60;;;3.30;99.90;;;;;;4190914;28;20029;-49
2021/12/11 03:09:08;;;;;;;15.77;15.68;;;3.20;99.90;;;;;;4186430;28;20443;-49
2021/12/11 03:11:15;;;;;;;17.20;17.10;;;3.20;99.90;;;;;;4193201;28;20048;-47
2021/12/11 03:13:18;;;;;;;19.60;19.40;;;3.20;99.90;;;;;;4192136;28;20064;-48
2021/12/11 03:15:21;;;;;;;18.45;18.35;;;3.20;99.90;;;;;;4189730;28;20102;-47
2021/12/11 03:17:25;;;;;;;17.08;16.98;;;3.30;99.90;;;;;;4193433;28;20101;-47
2021/12/11 03:19:30;;;;;;;21.42;21.23;;;3.30;99.90;;;;;;4189093;28;20050;-47
2021/12/11 03:21:33;;;;;;;19.55;19.45;;;3.20;99.90;;;;;;4192913;28;20444;-48
2021/12/11 03:23:35;;;;;;;16.95;16.85;;;3.20;99.90;;;;;;4192568;28;20094;-46
2021/12/11 03:25:39;;;;;;;14.55;14.02;;;3.20;99.90;;;;;;4193132;28;20516;-47
2021/12/11 03:27:42;;;;;;;15.48;15.38;;;3.20;99.90;;;;;;4189815;28;20036;-47
2021/12/11 03:29:45;;;;;;;12.73;12.63;;;3.10;99.90;;;;;;4192192;28;20025;-48
2021/12/11 03:31:48;;;;;;;12.25;12.15;;;3.20;99.90;;;;;;4188544;28;20444;-48
2021/12/11 03:33:57;;;;;;;16.70;16.50;;;3.20;99.90;;;;;;4181952;28;20504;-48
2021/12/11 03:36:01;;;;;;;17.00;16.90;;;3.20;99.90;;;;;;4193799;28;20052;-48
2021/12/11 03:38:04;;;;;;;17.10;16.83;;;3.20;99.90;;;;;;4191659;28;20051;-46
2021/12/11 03:40:08;;;;;;;18.48;18.27;;;3.20;99.90;;;;;;4192190;28;20098;-46
2021/12/11 03:42:31;;;;;;;16.10;16.00;;;3.10;99.90;;;;;;4193754;28;20040;-47
2021/12/11 03:44:34;;;;;;;16.40;16.20;;;3.20;99.90;;;;;;4175436;28;20053;-47
2021/12/11 03:46:37;;;;;;;16.48;16.38;;;3.10;99.90;;;;;;4193819;28;20090;-47
2021/12/11 03:48:53;;;;;;;18.63;18.35;;;3.10;99.90;;;;;;4192108;28;20040;-46
2021/12/11 03:50:56;;;;;;;17.55;17.35;;;3.10;99.90;;;;;;4192803;28;20083;-46
2021/12/11 03:52:59;;;;;;;15.05;14.88;;;3.10;99.90;;;;;;4193739;28;20063;-47
2021/12/11 03:55:01;;;;;;;13.40;13.30;;;3.20;99.90;;;;;;4190103;28;20032;-48
2021/12/11 03:57:06;;;;;;;15.68;15.57;;;3.30;99.90;;;;;;4194252;28;20447;-46
2021/12/11 03:59:11;;;;;;;12.85;12.60;;;3.30;99.90;;;;;;4191420;28;20098;-45
2021/12/11 04:01:22;;;;;;;14.88;14.48;;;3.40;99.90;;;;;;4188995;28;20075;-47
2021/12/11 04:03:31;;;;;;;13.63;12.88;;;3.40;99.90;;;;;;4193247;28;20043;-47
2021/12/11 04:05:38;;;;;;;14.68;14.52;;;3.30;99.90;;;;;;4193738;28;20040;-48
2021/12/11 04:07:47;;;;;;;12.82;12.70;;;3.30;99.90;;;;;;4190517;28;20032;-45
2021/12/11 04:09:49;;;;;;;14.50;14.30;;;3.30;99.90;;;;;;4193072;28;20048;-46
2021/12/11 04:11:53;;;;;;;;;;;3.30;99.90;;;;;;4193995;28;20036;-47
2021/12/11 04:14:00;;;;;;;16.52;16.30;;;3.30;99.90;;;;;;4176278;28;20023;-46
2021/12/11 04:16:04;;;;;;;15.65;15.38;;;3.40;99.90;;;;;;4190842;28;20051;-46
2021/12/11 04:18:08;;;;;;;18.40;18.13;;;3.40;99.90;;;;;;4192315;28;20563;-47
2021/12/11 04:20:14;;;;;;;17.88;17.58;;;3.40;99.90;;;;;;4192929;28;20040;-47
2021/12/11 04:22:17;;;;;;;20.58;19.85;;;3.40;99.90;;;;;;4192615;28;20032;-47
2021/12/11 04:24:23;;;;;;;19.95;19.58;;;3.40;99.90;;;;;;4190653;28;20472;-48
2021/12/11 04:26:25;;;;;;;18.60;18.35;;;3.30;99.90;;;;;;4191483;28;20048;-48
2021/12/11 04:28:30;;;;;;;19.58;19.23;;;3.30;99.90;;;;;;4185550;28;20033;-47
2021/12/11 04:30:33;;;;;;;19.38;19.02;;;3.20;99.90;;;;;;4184257;28;20110;-50
2021/12/11 04:32:38;;;;;;;22.58;21.98;;;3.20;99.90;;;;;;4177181;28;20049;-48
2021/12/11 04:34:40;;;;;;;20.35;19.85;;;3.20;99.90;;;;;;4192381;28;20032;-48
2021/12/11 04:36:58;;;;;;;20.05;19.77;;;3.20;99.90;;;;;;4192014;28;20051;-47
2021/12/11 04:39:03;;;;;;;19.83;19.42;;;3.20;99.90;;;;;;4191183;28;20037;-48
2021/12/11 04:41:07;;;;;;;21.20;20.80;;;3.20;99.90;;;;;;4192478;28;20041;-47
2021/12/11 04:43:16;;;;;;;23.05;22.55;;;3.20;99.90;;;;;;4191869;28;20044;-47
2021/12/11 04:45:25;;;;;;;21.15;20.80;;;3.20;99.90;;;;;;4192934;28;20131;-46
2021/12/11 04:49:42;;;;;;;19.83;19.63;;;3.20;99.90;;;;;;4193405;28;20041;-46
2021/12/11 04:51:59;;;;;;;20.65;20.35;;;3.20;99.90;;;;;;4172365;28;20060;-48
2021/12/11 05:06:19;;;;;;;20.42;20.13;;;3.30;99.90;;;;;;4195273;28;20036;-46
2021/12/11 05:07:55;;;;;;;21.15;20.85;;;3.30;99.90;;;;;;4179579;28;20067;-46
2021/12/11 05:10:18;;;;;;;21.55;21.17;;;3.30;99.90;;;;;;4179569;28;20041;-46
2021/12/11 05:12:35;;;;;;;21.30;20.80;;;3.40;99.90;;;;;;4192839;28;20471;-46
2021/12/11 05:14:38;;;;;;;20.10;19.80;;;3.40;99.90;;;;;;4189871;28;20040;-48
2021/12/11 05:16:41;;;;;;;21.27;21.05;;;3.30;99.90;;;;;;4193959;28;20573;-48
2021/12/11 05:18:45;;;;;;;19.95;19.55;;;3.20;99.90;;;;;;4194635;28;20083;-46
2021/12/11 05:20:51;;;;;;;21.35;21.05;;;3.20;99.90;;;;;;4193061;28;20536;-46
2021/12/11 05:22:53;;;;;;;21.42;21.13;;;3.20;99.90;;;;;;4193663;28;20607;-47
2021/12/11 05:24:56;;;;;;;21.25;20.83;;;3.40;99.90;;;;;;4195462;28;20041;-48
2021/12/11 05:26:59;;;;;;;20.42;20.13;;;3.40;99.90;;;;;;4194680;28;20041;-47
2021/12/11 05:29:02;;;;;;;20.20;19.90;;;3.40;99.90;;;;;;4194635;28;20064;-46
2021/12/11 05:31:07;;;;;;;19.17;18.77;;;3.40;99.90;;;;;;4194990;28;20062;-47
2021/12/11 05:33:10;;;;;;;19.20;19.00;;;3.30;99.90;;;;;;4194129;28;20044;-45
2021/12/11 05:35:13;;;;;;;19.80;19.60;;;3.40;99.90;;;;;;4193776;28;20044;-46
2021/12/11 05:37:15;;;;;;;20.27;20.08;;;3.40;99.90;;;;;;4195202;28;20090;-48
2021/12/11 05:39:20;;;;;;;20.73;20.52;;;3.50;99.90;;;;;;4193631;28;20056;-47
2021/12/11 05:41:23;;;;;;;21.00;20.48;;;3.50;99.90;;;;;;4195450;28;20040;-46
2021/12/11 05:43:26;;;;;;;20.65;20.40;;;3.40;99.90;;;;;;4195570;28;20040;-47
2021/12/11 05:45:28;;;;;;;22.90;22.35;;;3.40;99.90;;;;;;4195280;28;20036;-47
2021/12/11 05:47:30;;;;;;;21.45;21.13;;;3.40;99.90;;;;;;4194818;28;20501;-46
2021/12/11 05:49:34;;;;;;;20.10;19.60;;;3.40;99.90;;;;;;4196459;28;20029;-45
2021/12/11 05:51:39;;;;;;;20.27;19.98;;;3.40;99.90;;;;;;4194077;28;20052;-45
2021/12/11 05:53:41;;;;;;;19.65;19.45;;;3.40;99.90;;;;;;4196082;28;20044;-47
2021/12/11 05:55:46;;;;;;;19.80;19.58;;;3.40;99.90;;;;;;4194598;28;20086;-46
2021/12/11 05:57:54;;;;;;;19.73;19.52;;;3.40;99.90;;;;;;4194645;28;20036;-48
2021/12/11 05:59:56;;;;;;;18.98;18.77;;;3.40;99.90;;;;;;4194963;28;20040;-48
2021/12/11 06:02:08;;;;;;;21.33;21.13;;;3.50;99.90;;;;;;4194625;28;20037;-46
2021/12/11 06:04:14;;;;;;;20.67;20.48;;;3.60;99.90;;;;;;4190801;28;20033;-48
2021/12/11 06:06:17;;;;;;;21.10;20.90;;;3.60;99.90;;;;;;4193374;28;20033;-46
2021/12/11 06:08:19;;;;;;;21.27;20.98;;;3.50;99.90;;;;;;4191977;28;20036;-45
2021/12/11 06:10:24;;;;;;;22.27;21.98;;;3.50;99.90;;;;;;4195532;28;20779;-48
2021/12/11 06:12:27;;;;;;;21.98;21.67;;;3.50;99.90;;;;;;4193798;28;20039;-47
2021/12/11 06:14:30;;;;;;;21.73;21.33;;;3.40;99.90;;;;;;4177193;28;20457;-46
2021/12/11 06:16:33;;;;;;;22.70;22.38;;;3.40;99.90;;;;;;4194165;28;20033;-45
2021/12/11 06:18:35;;;;;;;19.50;19.30;;;3.40;99.90;;;;;;4193936;28;20097;-48
2021/12/11 06:20:38;;;;;;;22.40;21.85;;;3.40;99.90;;;;;;4175566;28;20036;-45
2021/12/11 06:22:43;;;;;;;23.48;22.98;;;3.30;99.90;;;;;;4194381;28;20075;-45
2021/12/11 06:24:46;;;;;;;19.80;19.42;;;3.30;99.90;;;;;;4193825;28;20044;-46
2021/12/11 06:26:49;;;;;;;21.08;20.77;;;3.20;99.90;;;;;;4195129;28;20086;-46
2021/12/11 06:28:51;;;;;;;;;;;3.40;99.90;;;;;;4194258;28;20395;-47
2021/12/11 06:30:58;;;;;;;22.25;21.95;;;3.40;99.90;;;;;;4194435;28;19950;-45
2021/12/11 06:33:00;;;;;;;21.20;21.00;;;3.30;99.90;;;;;;4193152;28;20801;-46
2021/12/11 06:35:12;;;;;;;19.80;19.60;;;3.30;99.90;;;;;;4181416;28;20495;-46
2021/12/11 06:37:16;;;;;;;20.73;20.42;;;3.30;99.90;;;;;;4194121;28;20032;-45
2021/12/11 06:39:21;;;;;;;23.05;22.55;;;3.30;99.90;;;;;;4192669;28;20045;-46
2021/12/11 06:41:27;;;;;;;21.27;20.88;;;3.30;99.90;;;;;;4189475;28;20048;-46
2021/12/11 06:43:29;;;;;;;19.48;19.27;;;3.40;99.90;;;;;;4185713;28;20566;-48
2021/12/11 06:45:32;;;;;;;19.70;19.50;;;3.40;99.90;;;;;;4194435;28;20547;-47
2021/12/11 06:47:34;;;;;;;20.55;20.35;;;3.40;99.90;;;;;;4193746;28;20032;-45
2021/12/11 06:49:39;;;;;;;19.92;19.73;;;3.40;99.90;;;;;;4191671;28;20551;-45
2021/12/11 06:51:41;;;;;;;19.63;19.40;;;3.30;99.90;;;;;;4185083;28;20040;-48
2021/12/11 06:53:50;;;;;;;18.05;17.75;;;3.30;99.90;;;;;;4192733;28;20068;-47
2021/12/11 06:55:53;;;;;;;18.70;18.50;;;3.30;99.90;;;;;;4191222;28;20420;-45
2021/12/11 06:57:55;;;;;;;;;;;3.40;99.90;;;;;;4194359;28;20513;-45
2021/12/11 07:00:03;;;;;;;20.45;20.08;;;3.40;99.90;;;;;;4176009;28;19924;-47
2021/12/11 07:02:06;;;;;;;19.17;18.98;;;3.30;99.90;;;;;;4193630;28;20063;-47
2021/12/11 07:04:11;;;;;;;20.60;20.33;;;3.30;99.90;;;;;;4193267;28;20028;-46
2021/12/11 07:06:14;;;;;;;16.15;16.05;;;3.30;99.90;;;;;;4193020;28;20063;-47
2021/12/11 07:08:17;;;;;;;16.38;16.05;;;3.30;99.90;;;;;;4190694;28;20032;-47
2021/12/11 07:10:20;;;;;;;13.02;12.27;;;3.30;99.90;;;;;;4193470;28;20133;-47
2021/12/11 07:12:23;;;;;;;47.33;33.83;;;3.40;99.90;;;;;;4193219;28;20388;-48
2021/12/11 07:14:28;;;;;;;8.75;8.65;;;3.40;99.90;;;;;;4192275;28;20051;-47
2021/12/11 07:16:30;;;;;;;13.75;13.65;;;3.40;99.90;;;;;;4192265;28;20608;-47
2021/12/11 07:18:33;;;;;;;14.25;14.15;;;3.40;99.90;;;;;;4191990;28;20040;-47
2021/12/11 07:20:36;;;;;;;14.70;14.60;;;3.40;99.90;;;;;;4187189;28;20508;-47
2021/12/11 07:22:41;;;;;;;11.57;11.48;;;3.40;99.90;;;;;;4193714;28;20044;-45
2021/12/11 07:24:50;;;;;;;9.65;9.55;;;3.40;99.90;;;;;;4193040;28;20024;-44
2021/12/11 07:26:53;;;;;;;11.45;11.25;;;3.40;99.90;;;;;;4192004;28;20040;-45
2021/12/11 07:28:58;;;;;;;9.10;8.85;;;3.50;99.90;;;;;;4193318;28;20100;-47
2021/12/11 07:31:01;;;;;;;10.15;9.95;;;3.50;99.90;;;;;;4191828;28;20048;-46
2021/12/11 07:33:04;;;;;;;;;;;3.60;99.90;;;;;;4192711;28;20039;-47
2021/12/11 07:35:08;;;;;;;9.80;9.38;;;3.60;99.90;;;;;;4192578;28;19988;-47
2021/12/11 07:37:10;;;;;;;4.53;4.53;;;3.60;99.90;;;;;;4193167;28;20043;-46
2021/12/11 07:39:16;;;;;;;11.50;10.70;;;3.70;99.90;;;;;;4193252;28;20105;-47
2021/12/11 07:41:19;;;;;;;5.72;5.50;;;3.70;99.90;;;;;;4192641;28;20041;-46
2021/12/11 07:43:25;;;;;;;5.10;4.93;;;3.80;99.90;;;;;;4192932;28;20049;-47
2021/12/11 07:45:27;;;;;;;6.40;6.30;;;3.80;99.90;;;;;;4192919;28;20033;-46
2021/12/11 07:47:30;;;;;;;5.32;5.25;;;3.80;99.90;;;;;;4193483;28;20432;-45
2021/12/11 07:49:32;;;;;;;8.52;8.20;;;3.90;99.90;;;;;;4193143;28;20048;-46
2021/12/11 07:51:36;;;;;;;5.50;5.40;;;3.80;99.90;;;;;;4192188;28;20317;-45
2021/12/11 07:53:40;;;;;;;4.93;4.85;;;3.80;99.90;;;;;;4172184;28;20068;-47
2021/12/11 07:55:44;;;;;;;5.70;5.70;;;4.00;99.90;;;;;;4190496;28;20032;-47
2021/12/11 07:57:48;;;;;;;4.45;4.45;;;4.10;99.90;;;;;;4192486;28;20044;-48
2021/12/11 07:59:50;;;;;;;5.00;4.88;;;4.10;99.90;;;;;;4172936;28;20033;-46
2021/12/11 08:01:54;;;;;;;4.38;4.30;;;4.10;99.90;;;;;;4190047;28;20047;-47
2021/12/11 08:03:59;;;;;;;5.63;5.53;;;4.00;99.90;;;;;;4190816;28;20041;-44
2021/12/11 08:06:02;;;;;;;3.72;3.72;;;4.00;99.90;;;;;;4191278;28;20044;-46
2021/12/11 08:08:06;;;;;;;3.97;3.97;;;4.20;99.90;;;;;;4192537;28;20102;-45
2021/12/11 08:10:13;;;;;;;4.28;4.28;;;4.30;99.90;;;;;;4192142;28;20048;-45
2021/12/11 08:12:15;;;;;;;3.22;3.15;;;4.30;99.90;;;;;;4188124;28;20090;-45
2021/12/11 08:14:18;;;;;;;4.68;4.47;;;4.20;99.90;;;;;;4191558;28;20071;-45
2021/12/11 08:16:26;;;;;;;5.20;5.10;;;4.20;99.90;;;;;;4191991;28;20135;-46
2021/12/11 08:18:28;;;;;;;5.20;4.90;;;4.20;99.90;;;;;;4191210;28;20113;-47
2021/12/11 08:20:32;;;;;;;4.63;4.47;;;4.10;99.90;;;;;;4191969;28;20041;-48
2021/12/11 08:22:34;;;;;;;4.50;4.40;;;4.30;99.90;;;;;;4192563;28;20098;-46
2021/12/11 08:24:38;;;;;;;4.43;4.32;;;4.30;99.90;;;;;;4192734;28;20098;-48
2021/12/11 08:26:41;;;;;;;4.28;4.28;;;4.20;99.90;;;;;;4193548;28;20041;-47
2021/12/11 08:28:44;;;;;;;4.72;4.63;;;4.30;99.90;;;;;;4194134;28;20029;-47
2021/12/11 08:30:48;;;;;;;5.05;4.70;;;4.20;99.90;;;;;;4195769;28;20074;-48
2021/12/11 08:32:51;;;;;;;3.72;3.63;;;4.30;99.90;;;;;;4194113;28;20150;-47
2021/12/11 08:34:53;;;;;;;3.88;3.88;;;4.40;99.90;;;;;;4195709;28;20064;-46
2021/12/11 08:36:56;;;;;;;4.05;3.95;;;4.40;99.90;;;;;;4194860;28;20497;-49
2021/12/11 08:38:59;;;;;;;4.07;3.97;;;4.30;99.90;;;;;;4196499;28;20045;-48
2021/12/11 08:41:04;;;;;;;4.68;4.47;;;4.40;99.90;;;;;;4195009;28;21415;-50
2021/12/11 08:43:08;;;;;;;4.65;4.45;;;4.40;99.90;;;;;;4195287;28;20045;-50
2021/12/11 08:45:20;;;;;;;3.58;3.58;;;4.50;99.90;;;;;;4196314;28;20040;-52
2021/12/11 08:47:23;;;;;;;3.45;3.40;;;4.50;99.90;;;;;;4195598;28;20042;-49
2021/12/11 08:49:29;;;;;;;4.15;4.00;;;4.50;99.90;;;;;;4195417;28;20064;-49
2021/12/11 08:51:36;;;;;;;3.28;3.20;;;4.50;99.90;;;;;;4182693;28;20041;-49
2021/12/11 08:53:39;;;;;;;3.17;3.17;;;4.60;99.90;;;;;;4176392;28;20497;-49
2021/12/11 08:55:45;;;;;;;4.35;4.25;;;4.70;99.90;;;;;;4166098;28;20046;-49
2021/12/11 08:57:48;;;;;;;2.67;2.67;;;4.70;99.90;;;;;;4176324;28;20041;-52
2021/12/11 08:59:59;;;;;;;3.58;3.22;;;4.80;99.90;;;;;;4162771;28;20633;-51
2021/12/11 09:02:07;;;;;;;3.65;3.55;;;4.80;99.90;;;;;;4176891;28;20044;-49
2021/12/11 09:04:20;;;;;;;4.00;4.00;;;4.80;99.90;;;;;;4177715;28;20053;-51
2021/12/11 09:06:38;;;;;;;5.13;5.03;;;4.70;99.90;;;;;;4176390;28;20049;-50
2021/12/11 09:09:04;;;;;;;7.93;7.53;;;4.80;99.90;;;;;;4179021;28;20094;-48
2021/12/11 09:11:29;;;;;;;3.70;3.70;;;4.80;99.90;;;;;;4177204;28;20045;-47
2021/12/11 09:13:45;;;;;;;4.05;3.95;;;4.80;99.90;;;;;;4178399;28;20151;-50
2021/12/11 09:16:14;;;;;;;4.60;4.50;;;4.90;99.90;;;;;;4177273;28;20050;-51
2021/12/11 09:18:25;;;;;;;4.32;4.22;;;4.90;99.90;;;;;;4128137;28;20053;-48
2021/12/11 09:20:27;;;;;;;3.33;3.22;;;4.90;99.90;;;;;;4139972;28;20054;-50
2021/12/11 09:22:37;;;;;;;3.63;3.63;;;4.90;99.90;;;;;;4128435;28;20042;-52
2021/12/11 09:24:50;;;;;;;4.53;4.43;;;4.90;99.90;;;;;;4112446;28;20047;-50
2021/12/11 09:27:01;;;;;;;4.93;4.82;;;4.90;99.90;;;;;;4128351;28;20047;-49
2021/12/11 09:29:27;;;;;;;3.45;3.00;;;4.90;99.90;;;;;;4131455;28;20042;-48
2021/12/11 09:31:35;;;;;;;3.28;3.05;;;4.90;99.90;;;;;;4132826;28;20041;-48
2021/12/11 09:33:42;;;;;;;5.05;4.72;;;4.90;99.90;;;;;;4139172;28;20414;-49
2021/12/11 09:35:52;;;;;;;2.83;2.83;;;4.90;99.90;;;;;;4133430;28;20053;-50
2021/12/11 09:38:05;;;;;;;3.65;3.45;;;5.10;99.90;;;;;;4137572;28;20054;-51
2021/12/11 09:40:21;;;;;;;4.45;4.45;;;5.10;99.90;;;;;;4131430;28;20541;-49
2021/12/11 09:42:23;;;;;;;6.28;6.07;;;5.20;99.90;;;;;;4126784;28;20105;-50
2021/12/11 09:44:33;;;;;;;6.60;6.25;;;5.10;99.90;;;;;;4127552;28;20046;-49
2021/12/11 09:47:00;;;;;;;3.67;3.58;;;5.00;99.90;;;;;;4128840;28;20042;-47
2021/12/11 09:49:06;;;;;;;5.25;3.40;;;5.00;99.90;;;;;;4127707;28;20486;-49
2021/12/11 09:51:12;;;;;;;2.35;2.35;;;5.10;99.90;;;;;;4137844;28;20053;-52
2021/12/11 09:53:17;;;;;;;2.88;2.85;;;5.10;99.90;;;;;;4143483;28;20042;-49
2021/12/11 09:55:23;;;;;;;3.03;3.00;;;5.20;99.90;;;;;;4159559;28;20497;-48
2021/12/11 09:57:30;;;;;;;3.25;3.15;;;5.20;99.90;;;;;;4195356;28;20036;-49
2021/12/11 09:59:34;;;;;;;2.50;2.50;;;5.20;99.90;;;;;;4192788;28;20075;-51
2021/12/11 10:01:42;;;;;;;4.72;4.43;;;5.20;99.90;;;;;;4174470;28;20480;-50
2021/12/11 10:03:56;;;;;;;3.30;3.30;;;5.20;99.90;;;;;;4188866;28;20060;-50
2021/12/11 10:06:14;;;;;;;3.80;2.72;;;5.20;99.90;;;;;;4195114;28;20410;-51
2021/12/11 10:08:36;;;;;;;2.78;2.67;;;5.30;99.90;;;;;;4192349;28;20102;-51
2021/12/11 10:10:39;;;;;;;3.60;3.50;;;5.40;99.90;;;;;;4184073;28;20496;-48
2021/12/11 10:12:48;;;;;;;5.03;4.72;;;5.60;99.90;;;;;;4191762;28;20033;-52
2021/12/11 10:15:19;;;;;;;3.85;3.75;;;5.70;99.90;;;;;;4189826;28;20052;-52
2021/12/11 10:17:36;;;;;;;3.53;3.28;;;5.70;99.90;;;;;;4189745;28;20543;-49
2021/12/11 10:19:41;;;;;;;2.78;2.78;;;5.80;99.90;;;;;;4192838;28;20075;-50
2021/12/11 10:21:54;;;;;;;3.65;3.55;;;5.70;99.90;;;;;;4193296;28;20044;-49
2021/12/11 10:24:00;;;;;;;3.25;3.15;;;5.70;99.90;;;;;;4193953;28;20040;-51
2021/12/11 10:26:10;;;;;;;4.28;3.92;;;5.70;99.90;;;;;;4193559;28;20048;-48
2021/12/11 10:28:17;;;;;;;6.78;6.22;;;5.60;99.90;;;;;;4193778;28;20035;-49
2021/12/11 10:30:23;;;;;;;3.80;3.70;;;5.60;99.90;;;;;;4195312;28;20044;-51
2021/12/11 10:32:31;;;;;;;3.92;3.60;;;5.60;99.90;;;;;;4188533;28;20460;-51
2021/12/11 10:34:38;;;;;;;4.15;4.05;;;5.60;99.90;;;;;;4190267;28;20052;-50
2021/12/11 10:36:48;;;;;;;3.60;3.53;;;5.70;99.90;;;;;;4192465;28;20036;-52
2021/12/11 10:38:52;;;;;;;3.80;3.78;;;5.80;99.90;;;;;;4186955;28;20037;-50
2021/12/11 10:41:00;;;;;;;5.32;3.40;;;5.90;99.90;;;;;;4191727;28;20562;-49
2021/12/11 10:43:13;;;;;;;3.13;3.05;;;5.90;99.90;;;;;;4191838;28;20040;-52
2021/12/11 10:45:16;;;;;;;4.43;4.32;;;6.00;99.90;;;;;;4190536;28;20048;-51
2021/12/11 10:47:35;;;;;;;3.80;3.70;;;6.10;99.90;;;;;;4192373;28;20041;-51
2021/12/11 10:49:49;;;;;;;2.70;2.70;;;6.10;99.90;;;;;;4171472;28;20075;-52
2021/12/11 10:52:19;;;;;;;3.72;3.65;;;6.10;99.90;;;;;;4175307;28;20041;-51
2021/12/11 10:54:23;;;;;;;3.45;3.35;;;6.20;99.90;;;;;;4170404;28;22126;-49
2021/12/11 10:56:26;;;;;;;3.92;3.75;;;6.20;99.90;;;;;;4174196;28;20160;-50
2021/12/11 10:58:35;;;;;;;2.83;2.63;;;6.20;99.90;;;;;;4172791;28;20045;-52
2021/12/11 11:00:43;;;;;;;3.97;3.83;;;6.20;99.90;;;;;;4171019;28;20114;-52
2021/12/11 11:02:45;;;;;;;3.30;3.30;;;6.20;99.90;;;;;;4175602;28;20064;-49
2021/12/11 11:04:49;;;;;;;;;;;6.30;99.90;;;;;;4174524;28;20037;-52
2021/12/11 11:06:52;;;;;;;2.22;2.13;;;6.40;99.90;;;;;;4173892;28;20344;-52
2021/12/11 11:08:55;;;;;;;11.32;9.93;;;6.50;99.90;;;;;;4172496;28;20037;-51
2021/12/11 11:11:06;;;;;;;2.58;2.47;;;6.50;99.90;;;;;;4175001;28;20056;-50
2021/12/11 11:13:14;;;;;;;5.50;5.40;;;6.40;99.90;;;;;;4176159;28;20037;-51
2021/12/11 11:15:21;;;;;;;6.25;5.97;;;6.40;99.90;;;;;;4174545;28;20071;-52
2021/12/11 11:17:27;;;;;;;6.13;5.22;;;6.40;99.90;;;;;;4168170;28;20056;-51